createdAt,value
2023-03-24T00:00:31.680Z,99777.63
2023-03-24T00:03:04.425Z,99777.19
2023-03-24T00:05:34.668Z,99779.22
2023-03-24T00:08:05.095Z,99780.78
2023-03-24T00:10:36.954Z,99775.06
2023-03-24T00:29:59.595Z,99746.63
2023-03-24T00:32:30.602Z,99739.59
2023-03-24T00:35:00.632Z,99734.88
2023-03-24T00:37:30.693Z,99730.13
2023-03-24T00:40:01.127Z,99726.56
2023-03-24T00:42:31.372Z,99726.13
2023-03-24T00:45:04.042Z,99714.84
2023-03-24T00:47:37.100Z,99715.22
2023-03-24T00:50:07.597Z,99707.47
2023-03-24T00:52:44.339Z,99705.88
2023-03-24T00:55:16.797Z,99702.03
2023-03-24T00:57:50.768Z,99701.56
2023-03-24T01:00:26.346Z,99698.84
2023-03-24T01:02:58.690Z,99687.94
2023-03-24T01:05:30.757Z,99683.66
2023-03-24T01:08:03.435Z,99694.13
2023-03-24T01:10:35.787Z,99687.09
2023-03-24T01:13:05.959Z,99689.06
2023-03-24T01:15:39.435Z,99687.09
2023-03-24T01:18:09.959Z,99677.34
2023-03-24T01:20:40.908Z,99670.75
2023-03-24T01:23:11.562Z,99670.31
2023-03-24T01:25:42.788Z,99670.31
2023-03-24T01:28:12.743Z,99678.06
2023-03-24T01:30:45.983Z,99664.44
2023-03-24T01:33:16.617Z,99664.84
2023-03-24T01:35:46.933Z,99655.09
2023-03-24T01:38:18.273Z,99644.19
2023-03-24T02:58:09.022Z,99523.94
2023-03-24T03:00:45.255Z,99523.19
2023-03-24T03:03:19.314Z,99520.88
2023-03-24T03:05:54.214Z,99514.72
2023-03-24T03:08:27.029Z,99511.56
2023-03-24T03:11:00.255Z,99520.16
2023-03-24T03:13:37.379Z,99508.47
2023-03-24T03:16:12.393Z,99508.47
2023-03-24T03:18:50.230Z,99512.41
2023-03-24T03:21:24.489Z,99506.22
2023-03-24T03:23:58.214Z,99504.63
2023-03-24T03:26:32.955Z,99508.50
2023-03-24T03:29:11.776Z,99504.63
2023-03-24T03:31:45.726Z,99510.16
2023-03-24T03:34:24.052Z,99509.38
2023-03-24T03:37:00.842Z,99507.06
2023-03-24T03:39:33.582Z,99510.19
2023-03-24T03:42:03.777Z,99519.66
2023-03-24T03:44:37.323Z,99508.00
2023-03-24T03:47:07.456Z,99508.84
2023-03-24T03:49:37.391Z,99506.56
2023-03-24T03:52:08.351Z,99511.66
2023-03-24T03:54:40.616Z,99519.06
2023-03-24T03:57:10.963Z,99526.88
2023-03-24T03:59:43.753Z,99533.94
2023-03-24T04:02:30.709Z,99529.25
2023-03-24T04:05:29.602Z,99549.50
2023-03-24T04:08:34.458Z,99541.69
2023-03-24T04:11:27.952Z,99546.41
2023-03-24T04:14:06.949Z,99557.75
2023-03-24T04:16:50.253Z,99565.53
2023-03-24T04:19:37.025Z,99567.38
2023-03-24T04:22:25.240Z,99565.81
2023-03-24T04:25:00.388Z,99563.09
2023-03-24T04:27:38.658Z,99584.84
2023-03-24T04:30:17.576Z,99596.56
2023-03-24T04:32:55.268Z,99581.34
2023-03-24T04:35:34.454Z,99576.63
2023-03-24T04:38:08.999Z,99580.50
2023-03-24T04:40:42.291Z,99604.28
2023-03-24T04:43:17.649Z,99605.06
2023-03-24T04:45:50.429Z,99605.34
2023-03-24T04:48:23.450Z,99619.41
2023-03-24T04:50:57.882Z,99631.09
2023-03-24T04:53:27.907Z,99644.41
2023-03-24T04:56:06.768Z,99641.59
2023-03-24T04:58:36.964Z,99664.28
2023-03-24T05:01:09.273Z,99670.09
2023-03-24T05:03:42.353Z,99675.13
2023-03-24T05:06:13.418Z,99680.88
2023-03-24T05:08:43.481Z,99686.09
2023-03-24T05:11:13.317Z,99702.56
2023-03-24T05:13:44.658Z,99710.38
2023-03-24T05:16:14.599Z,99710.75
2023-03-24T05:18:47.190Z,99711.88
2023-03-24T05:21:17.067Z,99722.78
2023-03-24T05:23:46.893Z,99733.78
2023-03-24T05:26:16.862Z,99752.09
2023-03-24T05:28:46.903Z,99747.28
2023-03-24T05:31:16.856Z,99760.81
2023-03-24T05:33:49.450Z,99768.53
2023-03-24T05:36:19.711Z,99778.56
2023-03-24T05:38:49.599Z,99786.97
2023-03-24T05:41:19.568Z,99801.59
2023-03-24T05:43:49.415Z,99804.59
2023-03-24T05:46:19.340Z,99810.47
2023-03-24T05:48:51.951Z,99812.41
2023-03-24T05:51:21.770Z,99812.41
2023-03-24T05:53:52.513Z,99815.38
2023-03-24T05:56:22.354Z,99813.75
2023-03-24T05:58:52.681Z,99834.78
2023-03-24T06:01:24.946Z,99835.06
2023-03-24T06:03:57.676Z,99856.66
2023-03-24T06:06:28.916Z,99849.63
2023-03-24T06:08:58.821Z,99856.53
2023-03-24T06:11:28.726Z,99856.84
2023-03-24T06:14:00.640Z,99852.25
2023-03-24T06:16:34.143Z,99860.69
2023-03-24T06:19:06.955Z,99859.81
2023-03-24T06:21:37.280Z,99863.69
2023-03-24T06:24:07.745Z,99855.06
2023-03-24T06:26:37.626Z,99864.19
2023-03-24T06:29:07.473Z,99861.47
2023-03-24T06:31:37.663Z,99866.47
2023-03-24T06:34:10.229Z,99867.25
2023-03-24T06:36:40.882Z,99873.31
2023-03-24T06:39:10.932Z,99876.56
2023-03-24T06:41:40.833Z,99881.78
2023-03-24T06:44:10.956Z,99885.59
2023-03-24T06:46:40.875Z,99893.78
2023-03-24T06:49:13.428Z,99896.84
2023-03-24T06:51:43.286Z,99891.59
2023-03-24T06:54:13.233Z,99891.97
2023-03-24T06:56:43.096Z,99893.22
2023-03-24T06:59:13.359Z,99897.47
2023-03-24T07:01:43.384Z,99886.91
2023-03-24T07:04:15.905Z,99885.63
2023-03-24T07:07:00.888Z,99896.84
2023-03-24T07:09:35.661Z,99893.06
2023-03-24T07:12:05.750Z,99889.47
2023-03-24T07:14:35.857Z,99899.41
2023-03-24T07:17:05.814Z,99897.31
2023-03-24T07:19:38.286Z,99891.06
2023-03-24T07:22:08.532Z,99894.84
2023-03-24T07:24:38.531Z,99905.28
2023-03-24T07:27:09.375Z,99899.00
2023-03-24T07:29:39.306Z,99906.38
2023-03-24T07:32:09.882Z,99900.25
2023-03-24T07:34:44.036Z,99908.41
2023-03-24T07:37:13.978Z,99908.63
2023-03-24T07:39:43.938Z,99925.06
2023-03-24T07:42:13.798Z,99928.41
2023-03-24T07:44:44.010Z,99918.50
2023-03-24T07:47:14.278Z,99912.63
2023-03-24T07:49:47.067Z,99910.41
2023-03-24T07:52:17.082Z,99916.66
2023-03-24T07:54:46.954Z,99914.59
2023-03-24T07:57:17.014Z,99926.69
2023-03-24T07:59:46.979Z,99925.28
2023-03-24T08:02:20.664Z,99934.00
2023-03-24T08:04:54.009Z,99942.59
2023-03-24T08:07:25.009Z,99942.16
2023-03-24T08:09:54.866Z,99944.28
2023-03-24T08:12:24.815Z,99957.78
2023-03-24T08:14:57.573Z,99953.22
2023-03-24T08:17:27.718Z,99952.38
2023-03-24T08:20:01.592Z,99956.69
2023-03-24T08:22:32.360Z,99963.25
2023-03-24T08:25:02.276Z,99970.75
2023-03-24T08:27:32.130Z,99958.59
2023-03-24T08:30:01.954Z,99965.41
2023-03-24T08:32:32.036Z,99965.41
2023-03-24T08:35:05.343Z,99971.41
2023-03-24T08:37:35.649Z,99965.41
2023-03-24T08:40:12.339Z,99970.97
2023-03-24T08:42:42.833Z,99964.56
2023-03-24T08:45:15.381Z,99966.75
2023-03-24T08:47:45.363Z,99971.91
2023-03-24T08:50:18.136Z,99974.31
2023-03-24T08:52:48.870Z,99971.00
2023-03-24T08:55:19.726Z,99967.50
2023-03-24T08:57:50.107Z,99948.78
2023-03-24T09:00:22.909Z,99961.50
2023-03-24T09:02:54.832Z,99967.22
2023-03-24T09:05:43.522Z,99979.75
2023-03-24T09:08:15.446Z,99979.50
2023-03-24T09:10:48.779Z,99979.97
2023-03-24T09:13:19.080Z,99979.69
2023-03-24T09:15:50.862Z,99985.81
2023-03-24T09:18:21.883Z,99989.44
2023-03-24T09:20:54.890Z,99997.25
2023-03-24T09:23:25.945Z,99991.63
2023-03-24T09:25:56.826Z,99990.00
2023-03-24T09:28:28.062Z,100005.59
2023-03-24T09:31:01.049Z,99993.06
2023-03-24T09:33:34.997Z,99996.56
2023-03-24T09:36:08.644Z,99995.28
2023-03-24T09:38:38.808Z,99996.88
2023-03-24T09:41:20.409Z,100002.03
2023-03-24T09:43:55.659Z,100002.03
2023-03-24T09:46:31.837Z,99999.31
2023-03-24T09:49:02.521Z,100002.03
2023-03-24T09:51:39.780Z,100008.38
2023-03-24T09:54:17.957Z,100005.41
2023-03-24T09:56:51.737Z,100006.63
2023-03-24T09:59:24.688Z,100010.91
2023-03-24T10:02:07.042Z,100020.69
2023-03-24T10:04:37.149Z,100022.78
2023-03-24T10:07:16.655Z,100023.28
2023-03-24T10:09:50.497Z,100020.25
2023-03-24T10:12:31.450Z,100021.28
2023-03-24T10:15:24.342Z,100026.81
2023-03-24T10:18:18.106Z,100040.78
2023-03-24T10:20:54.947Z,100047.03
2023-03-24T10:23:37.520Z,100041.81
2023-03-24T10:26:19.004Z,100044.16
2023-03-24T10:28:54.739Z,100057.16
2023-03-24T10:31:32.085Z,100043.16
2023-03-24T10:34:03.226Z,100049.19
2023-03-24T10:36:33.917Z,100041.28
2023-03-24T10:39:18.601Z,100040.94
2023-03-24T10:41:52.556Z,100042.31
2023-03-24T10:44:23.526Z,100049.44
2023-03-24T10:46:57.437Z,100047.88
2023-03-24T10:49:27.607Z,100037.38
2023-03-24T10:52:04.433Z,100052.72
2023-03-24T10:54:37.165Z,100057.50
2023-03-24T10:57:18.332Z,100056.66
2023-03-24T10:59:57.175Z,100059.63
2023-03-24T11:02:29.206Z,100060.47
2023-03-24T11:05:02.610Z,100058.19
2023-03-24T11:07:39.055Z,100058.97
2023-03-24T11:10:19.271Z,100058.91
2023-03-24T11:13:05.257Z,100039.59
2023-03-24T11:15:37.484Z,100049.91
2023-03-24T11:18:17.363Z,100041.34
2023-03-24T11:20:48.922Z,100049.13
2023-03-24T11:23:23.042Z,100045.91
2023-03-24T11:26:07.064Z,100053.72
2023-03-24T11:28:41.644Z,100048.97
2023-03-24T11:31:19.398Z,100051.88
2023-03-24T11:33:57.017Z,100045.28
2023-03-24T11:36:47.291Z,100041.28
2023-03-24T11:39:24.228Z,100038.94
2023-03-24T11:42:05.376Z,100056.78
2023-03-24T11:44:46.684Z,100057.53
2023-03-24T11:47:24.577Z,100068.06
2023-03-24T11:50:03.985Z,100059.75
2023-03-24T11:52:39.789Z,100057.44
2023-03-24T11:55:18.345Z,100049.66
2023-03-24T11:57:59.566Z,100052.03
2023-03-24T12:00:35.128Z,100049.88
2023-03-24T12:03:40.449Z,100057.66
2023-03-24T12:06:28.502Z,100056.09
2023-03-24T12:09:11.717Z,100060.06
2023-03-24T12:11:56.573Z,100054.47
2023-03-24T12:14:41.251Z,100045.13
2023-03-24T12:17:17.010Z,100042.41
2023-03-24T12:20:16.229Z,100042.31
2023-03-24T12:22:58.097Z,100041.22
2023-03-24T12:25:39.622Z,100035.75
2023-03-24T12:28:32.633Z,100028.66
2023-03-24T12:31:17.467Z,100039.25
2023-03-24T12:33:56.377Z,100024.03
2023-03-24T12:36:39.331Z,100023.25
2023-03-24T12:39:13.722Z,100013.94
2023-03-24T12:41:57.339Z,100023.44
2023-03-24T12:44:43.282Z,100012.34
2023-03-24T12:47:28.185Z,100006.06
2023-03-24T12:50:21.054Z,100005.94
2023-03-24T12:53:12.017Z,100010.19
2023-03-24T12:55:47.940Z,100004.97
2023-03-24T12:58:25.616Z,100008.16
2023-03-24T13:01:04.935Z,100000.47
2023-03-24T13:03:42.953Z,99981.81
2023-03-24T13:06:23.010Z,100005.28
2023-03-24T13:09:11.017Z,100003.66
2023-03-24T13:11:51.091Z,99998.88
2023-03-24T13:14:28.390Z,99999.56
2023-03-24T13:17:06.462Z,100022.97
2023-03-24T13:19:40.883Z,100011.84
2023-03-24T13:22:19.018Z,99998.47
2023-03-24T13:24:50.360Z,100000.88
2023-03-24T13:27:26.599Z,100020.00
2023-03-24T13:30:15.930Z,100034.41
2023-03-24T13:32:50.724Z,100062.03
2023-03-24T13:35:34.893Z,100034.72
2023-03-24T13:38:10.588Z,100015.38
2023-03-24T13:40:42.931Z,100017.09
2023-03-24T13:43:16.606Z,100019.50
2023-03-24T13:45:51.867Z,100013.72
2023-03-24T13:48:30.563Z,100011.00
2023-03-24T13:51:06.671Z,100010.03
2023-03-24T13:53:41.516Z,99999.47
2023-03-24T13:56:25.732Z,100002.63
2023-03-24T13:59:25.671Z,99994.69
2023-03-24T14:02:20.890Z,99996.97
2023-03-24T14:04:52.382Z,100001.69
2023-03-24T14:07:50.648Z,100037.91
2023-03-24T14:10:46.574Z,100051.13
2023-03-24T14:13:36.051Z,100062.56
2023-03-24T14:16:38.636Z,100054.66
2023-03-24T14:19:30.607Z,100056.25
2023-03-24T14:22:07.324Z,100027.97
2023-03-24T14:24:44.314Z,100020.00
2023-03-24T14:27:36.448Z,100020.53
2023-03-24T14:30:16.484Z,100009.31
2023-03-24T14:32:49.252Z,100011.00
2023-03-24T14:35:28.889Z,100014.03
2023-03-24T14:38:01.748Z,100018.66
2023-03-24T14:40:40.286Z,100023.13
2023-03-24T14:43:21.446Z,100038.59
2023-03-24T14:46:00.272Z,100052.56
2023-03-24T14:48:40.524Z,100040.63
2023-03-24T14:51:36.902Z,100033.72
2023-03-24T14:54:09.879Z,100029.22
2023-03-24T14:56:45.987Z,100022.97
2023-03-24T14:59:29.705Z,100026.06
2023-03-24T15:02:07.434Z,100038.13
2023-03-24T15:04:39.642Z,100030.22
2023-03-24T15:07:10.483Z,100030.97
2023-03-24T15:09:41.627Z,100036.72
2023-03-24T15:12:14.401Z,100023.34
2023-03-24T15:14:46.641Z,100021.78
2023-03-24T15:17:24.635Z,100023.28
2023-03-24T15:19:55.851Z,100025.31
2023-03-24T15:22:26.191Z,100018.97
2023-03-24T15:24:56.365Z,100013.88
2023-03-24T15:27:33.941Z,100008.69
2023-03-24T15:30:05.080Z,99997.31
2023-03-24T15:32:39.414Z,99993.34
2023-03-24T15:35:15.768Z,100000.78
2023-03-24T15:37:48.510Z,99998.34
2023-03-24T15:40:34.477Z,100004.09
2023-03-24T15:43:09.790Z,100022.88
2023-03-24T15:45:51.161Z,100014.88
2023-03-24T15:48:31.088Z,100022.59
2023-03-24T15:51:03.829Z,100031.06
2023-03-24T15:53:42.270Z,100020.75
2023-03-24T15:56:21.107Z,100023.53
2023-03-24T15:58:57.153Z,100028.81
2023-03-24T16:01:36.618Z,100012.28
2023-03-24T16:04:09.122Z,100017.63
2023-03-24T16:06:40.082Z,100013.75
2023-03-24T16:09:14.594Z,100008.28
2023-03-24T16:11:44.950Z,100015.69
2023-03-24T16:14:25.587Z,100008.00
2023-03-24T16:16:58.216Z,100006.47
2023-03-24T16:19:31.528Z,100008.06
2023-03-24T16:22:02.625Z,100005.81
2023-03-24T16:24:33.996Z,100001.94
2023-03-24T16:27:04.100Z,99999.53
2023-03-24T16:29:37.025Z,100005.41
2023-03-24T16:32:10.107Z,99998.78
2023-03-24T16:34:40.031Z,100002.81
2023-03-24T16:37:10.852Z,100006.69
2023-03-24T16:39:40.839Z,99996.94
2023-03-24T16:42:13.119Z,100008.16
2023-03-24T16:44:46.588Z,100001.03
2023-03-24T16:47:16.736Z,100002.53
2023-03-24T16:49:46.598Z,100009.03
2023-03-24T16:52:17.937Z,100014.91
2023-03-24T16:54:50.500Z,100013.63
2023-03-24T16:57:21.845Z,100009.31
2023-03-24T16:59:54.510Z,100022.88
2023-03-24T17:02:27.046Z,100014.06
2023-03-24T17:04:57.354Z,100020.31
2023-03-24T17:07:27.789Z,100017.06
2023-03-24T17:09:57.719Z,100023.53
2023-03-24T17:12:27.899Z,100021.22
2023-03-24T17:15:00.471Z,100023.13
2023-03-24T17:17:30.462Z,100024.25
2023-03-24T17:20:01.234Z,100023.75
2023-03-24T17:22:32.558Z,100019.22
2023-03-24T17:25:02.496Z,100024.81
2023-03-24T17:27:32.433Z,100021.81
2023-03-24T17:30:05.294Z,100023.66
2023-03-24T17:32:36.803Z,100022.41
2023-03-24T17:35:07.458Z,100027.41
2023-03-24T17:37:37.455Z,100030.66
2023-03-24T17:40:10.756Z,100026.63
2023-03-24T17:42:43.314Z,100028.88
2023-03-24T17:45:20.460Z,100031.19
2023-03-24T17:47:50.430Z,100027.25
2023-03-24T17:50:20.888Z,100035.69
2023-03-24T17:52:51.456Z,100030.00
2023-03-24T17:55:21.740Z,100035.28
2023-03-24T17:57:51.914Z,100030.44
2023-03-24T18:00:25.426Z,100028.78
2023-03-24T18:02:56.817Z,100033.16
2023-03-24T18:05:28.112Z,100041.34
2023-03-24T18:07:58.109Z,100035.03
2023-03-24T18:10:27.930Z,100032.56
2023-03-24T18:12:57.835Z,100036.69
2023-03-24T18:15:30.699Z,100033.53
2023-03-24T18:18:01.017Z,100032.63
2023-03-24T18:20:32.289Z,100034.38
2023-03-24T18:23:02.099Z,100033.59
2023-03-24T18:25:32.311Z,100031.16
2023-03-24T18:28:02.773Z,100029.09
2023-03-24T18:30:35.533Z,100037.53
2023-03-24T18:33:05.596Z,100025.75
2023-03-24T18:35:35.811Z,100031.88
2023-03-24T18:38:05.908Z,100030.97
2023-03-24T18:40:38.570Z,100021.03
2023-03-24T18:43:08.703Z,100029.22
2023-03-24T18:45:41.320Z,100020.38
2023-03-24T18:48:15.612Z,100024.72
2023-03-24T18:50:48.750Z,100026.72
2023-03-24T18:53:18.783Z,100026.72
2023-03-24T18:55:50.443Z,100018.13
2023-03-24T18:58:21.521Z,100022.00
2023-03-24T19:00:55.670Z,100022.66
2023-03-24T19:03:27.323Z,100017.81
2023-03-24T19:05:59.224Z,100016.22
2023-03-24T19:08:29.093Z,100010.69
2023-03-24T19:11:00.305Z,100006.91
2023-03-24T19:13:30.294Z,100007.72
2023-03-24T19:16:02.886Z,100003.31
2023-03-24T19:18:32.994Z,100010.59
2023-03-24T19:21:02.953Z,100008.31
2023-03-24T19:23:33.670Z,100013.22
2023-03-24T19:26:03.791Z,100010.03
2023-03-24T19:28:37.422Z,100009.16
2023-03-24T19:31:13.814Z,100010.03
2023-03-24T19:33:44.422Z,100014.34
2023-03-24T19:36:15.841Z,100010.50
2023-03-24T19:38:46.259Z,100020.69
2023-03-24T19:41:17.785Z,100009.50
2023-03-24T19:43:47.754Z,100024.34
2023-03-24T19:46:21.273Z,100020.28
2023-03-24T19:48:51.319Z,100014.84
2023-03-24T19:51:21.849Z,100010.97
2023-03-24T19:53:51.720Z,100027.66
2023-03-24T19:56:22.287Z,100034.59
2023-03-24T19:58:52.538Z,100022.56
2023-03-24T20:01:25.283Z,100017.13
2023-03-24T20:03:55.463Z,100013.25
2023-03-24T20:06:25.671Z,100018.78
2023-03-24T20:08:58.104Z,100009.16
2023-03-24T20:11:27.962Z,100020.50
2023-03-24T20:13:57.973Z,100008.91
2023-03-24T20:16:30.420Z,100017.53
2023-03-24T20:19:00.286Z,100012.09
2023-03-24T20:21:30.535Z,100022.28
2023-03-24T20:24:00.786Z,100017.97
2023-03-24T20:26:31.357Z,100005.16
2023-03-24T20:29:01.281Z,100016.03
2023-03-24T20:31:34.166Z,100018.31
2023-03-24T20:34:04.133Z,100019.78
2023-03-24T20:36:34.162Z,100006.88
2023-03-24T20:39:05.924Z,100008.69
2023-03-24T20:41:36.506Z,100008.03
2023-03-24T20:44:06.557Z,100005.53
2023-03-24T20:46:40.209Z,100002.25
2023-03-24T20:49:14.399Z,99994.88
2023-03-24T20:51:44.275Z,100006.25
2023-03-24T20:54:14.859Z,100000.78
2023-03-24T20:56:44.921Z,99998.31
2023-03-24T20:59:14.867Z,100007.63
2023-03-24T21:01:49.030Z,99994.69
2023-03-24T21:04:20.525Z,99993.56
2023-03-24T21:06:50.406Z,100003.53
2023-03-24T21:09:22.496Z,100007.41
2023-03-24T21:11:52.444Z,100019.66
2023-03-24T21:14:22.680Z,100015.72
2023-03-24T21:16:55.303Z,100019.38
2023-03-24T21:19:26.186Z,100019.25
2023-03-24T21:21:56.392Z,100024.59
2023-03-24T21:24:26.673Z,100017.44
2023-03-24T21:26:57.395Z,100019.03
2023-03-24T21:29:27.405Z,100018.13
2023-03-24T21:31:59.893Z,100008.84
2023-03-24T21:34:29.737Z,100011.44
2023-03-24T21:37:01.820Z,100017.22
2023-03-24T21:39:33.827Z,100008.63
2023-03-24T21:42:06.792Z,100012.00
2023-03-24T21:44:39.911Z,100012.13
2023-03-24T21:47:15.106Z,99997.41
2023-03-24T21:49:49.407Z,100005.91
2023-03-24T21:52:19.628Z,100007.84
2023-03-24T21:54:49.527Z,100009.28
2023-03-24T21:57:20.246Z,100003.41
2023-03-24T21:59:50.154Z,100008.28
2023-03-24T22:02:25.291Z,100005.91
2023-03-24T22:04:55.197Z,100013.19
2023-03-24T22:07:25.444Z,100017.34
2023-03-24T22:09:55.252Z,100009.97
2023-03-24T22:12:25.330Z,100001.50
2023-03-24T22:14:55.344Z,100011.56
2023-03-24T22:17:28.205Z,100015.41
2023-03-24T22:19:58.081Z,100011.47
2023-03-24T22:22:27.946Z,100006.03
2023-03-24T22:24:58.084Z,100012.13
2023-03-24T22:27:28.085Z,100015.41
2023-03-24T22:29:57.917Z,100014.28
2023-03-24T22:32:30.887Z,100021.66
2023-03-24T22:35:01.844Z,100019.28
2023-03-24T22:37:31.851Z,100025.50
2023-03-24T22:40:01.814Z,100033.22
2023-03-24T22:42:31.969Z,100036.28
2023-03-24T22:45:02.136Z,100046.31
2023-03-24T22:47:37.084Z,100042.34
2023-03-24T22:50:09.728Z,100041.31
2023-03-24T22:52:39.672Z,100032.38
2023-03-24T22:55:10.521Z,100035.31
2023-03-24T22:57:40.500Z,100035.31
2023-03-24T23:00:12.162Z,100020.25
2023-03-24T23:02:44.870Z,100021.84
2023-03-24T23:05:15.507Z,100015.63
2023-03-24T23:07:45.606Z,100017.66
2023-03-24T23:10:16.071Z,100017.34
2023-03-24T23:12:46.576Z,100019.72
2023-03-24T23:15:18.036Z,100019.00
2023-03-24T23:17:50.687Z,100031.47
2023-03-24T23:20:21.215Z,100031.63
2023-03-24T23:22:51.380Z,100026.50
2023-03-24T23:25:21.926Z,100027.63
2023-03-24T23:27:51.781Z,100030.69
2023-03-24T23:30:21.637Z,100026.72
2023-03-24T23:32:54.165Z,100022.19
2023-03-24T23:35:24.090Z,100028.75
2023-03-24T23:37:53.935Z,100025.25
2023-03-24T23:40:24.420Z,100030.34
2023-03-24T23:42:54.444Z,100029.88
2023-03-24T23:45:24.327Z,100033.06
2023-03-24T23:47:57.048Z,100043.59
2023-03-24T23:50:28.389Z,100047.53
2023-03-24T23:52:59.355Z,100039.88
2023-03-24T23:55:29.959Z,100028.06
2023-03-24T23:58:00.176Z,100042.34
